Athelstane, WI

6:42 PM CDT on July 23, 2014 (GMT -0500)
Athelstane Township (KWIATHEL1) Elev 966 ft | 45.40 °N, 88.12 °W | Change Station

Current weather conditions updated 2 seconds ago

Partly Cloudy
Partly Cloudy
75.0 °F
Feels Like 77 °F
N
0.0
Wind Variable Wind from NNE
Gusts 4.0 mph

Tomorrow is forecast to be nearly the same temperature as today.

Today
High -- | Low -- °F
--% Chance of Precip.
Yesterday
High -- | Low -- °F
Precip. -- in
5:26 AM 8:31 PM
Waning Crescent, 8% visible
Pressure 30.18 in
Visibility 10.0 miles
Clouds Few 6000 ft
Heat Index 77 °F
Dew Point 47 °F
Humidity 37%
Rainfall 0.00 in
Snow Depth Not available.
UV 2 out of 12
Pollen 6.70 out of 12
Air Quality Not available.
Flu Activity Not available.
METAR KIMT 232254Z AUTO 36006KT 10SM FEW060 23/07 A3017 RMK AO2 SLP218 T02280072

More Conditions Fewer Conditions

Pressure 30.18 in
Visibility 10.0 miles
Clouds Few 6000 ft
Heat Index 77 °F
Dew Point 47 °F
Humidity 37%
Rainfall 0.00 in
Snow Depth Not available.
UV 2 out of 12
Pollen 6.70 out of 12
Air Quality Not available.
Flu Activity Not available.
METAR KIMT 232254Z AUTO 36006KT 10SM FEW060 23/07 A3017 RMK AO2 SLP218 T02280072

More Conditions Fewer Conditions

10-Day Weather Forecast

Almanac

Astronomy

Jul. 23, 2014 Rise Set
Actual Time 5:26 AM CDT 8:31 PM CDT
Civil Twilight 4:51 AM CDT 9:06 PM CDT
Nautical Twilight 4:06 AM CDT 9:51 PM CDT
Astronomical Twilight 3:10 AM CDT 10:46 PM CDT
Moon 2:47 AM CDT 5:58 PM CDT
Length of Visible Light 16h 14m
Length of Day
15h 04m
Tomorrow will be 2m 7s shorter.
Waning Crescent, 8% of the Moon is Illuminated
Today
Waning Crescent
Jul 26
New
Aug 3
First Quarter
Aug 10
Full
Aug 17
Last Quarter

Today's Extremes

State Highs State Lows

Community

WunderPhotos

Upload Photos

1,736,817 photos uploaded!

Nearby

Snow Depth

Station Depth Elevation
No new snow has been reported.

Earthquake Activity

City Distance Mag. Time & Date
No recent earthquake activity has been reported nearby.
Minimum magnitude displayed is 2.5.

Coastal Water Temperatures

Place Temperature
No Stations Reporting

Nearby Weather Stations

Station Location Temp. Heat Index Dew Point Humidity Wind Precip. Elev Updated Type
Athelstane Township, Athelstane, WI 75.0 °F 77 °F 47 °F 37% NNE  at  0.0 mph 0.00 in / hr 966 ft 6:42 PM CDT Rapid Fire
Pine Ridge Lake, Lakewood, WI 71.8 °F 77 °F 53 °F 51% West  at  0.0 mph 0.00 in / hr 1266 ft 6:42 PM CDT Rapid Fire
Lakewood, WI 70.2 °F 77 °F 52 °F 52% NE  at  3.0 mph 0.00 in / hr 1219 ft 6:30 PM CDT Normal
Wiggins Lake, Pembine, WI 71.8 °F 77 °F 50 °F 46% WNW  at  0.0 mph 0.00 in / hr 997 ft 6:41 PM CDT Rapid Fire
RAWS LAONA WI, Wabeno, WI 72 °F 77 °F 49 °F 44% NNE  at  5 mph 0.00 in / hr 1560 ft 6:01 PM CDT MADIS
Mountain, Mountain, WI 72.4 °F 77 °F 54 °F 52% NE  at  4.0 mph 0.00 in / hr 925 ft 6:42 PM CDT Rapid Fire

Show More Stations Show Fewer Stations